CheckWX is a tool to help pilots better visualize weather data.  It is not intended as a substitute for an official pre-flight weather briefing.

11:42:25 UTC

KFKL METAR
Venango Regional Airport
Franklin, Pennsylvania, USA
Current

17 mins ago

KFKL 041125Z AUTO 00000KT 10SM FEW019 OVC032 05/02 A3003 RMK AO2
Observed
Apr-4 @ 11:25 UTC
Visibility
Flight Rules
VFR
Cloud Levels
  • Few at 1,900' AGL
  • Overcast at 3,200' AGL
Temperature
C / 41°F
Dewpoint
C / 36°F
Humidity
81%
Altimeter
30.03" Hg
Pressure
1016.92 hPa
Previous

46 mins ago

KFKL 041056Z AUTO 00000KT 10SM OVC021 05/02 A3002 RMK AO2 SLP174 T00500017
Observed
Apr-4 @ 10:56 UTC
Visibility
Flight Rules
MVFR
Cloud Levels
  • Overcast at 2,100' AGL
Temperature
C / 41°F
Dewpoint
C / 36°F
Humidity
81%
Altimeter
30.02" Hg
Pressure
1016.62 hPa
Previous

2 hours ago

KFKL 040956Z AUTO 00000KT 10SM OVC023 05/01 A3001 RMK AO2 SLP169 T00500011
Observed
Apr-4 @ 09:56 UTC
Visibility
Flight Rules
MVFR
Cloud Levels
  • Overcast at 2,300' AGL
Temperature
C / 41°F
Dewpoint
C / 34°F
Humidity
76%
Altimeter
30.01" Hg
Pressure
1016.22 hPa